sensor_id;sensor_type;location;lat;lon;timestamp;temperature;humidity
36790;DHT22;22740;52.182;8.780;2022-08-05T00:00:23;21.80;99.90
36790;DHT22;22740;52.182;8.780;2022-08-05T00:06:26;21.80;99.90
36790;DHT22;22740;52.182;8.780;2022-08-05T00:12:33;21.70;99.90
36790;DHT22;22740;52.182;8.780;2022-08-05T00:18:55;21.50;99.90
36790;DHT22;22740;52.182;8.780;2022-08-05T00:24:57;21.60;99.90
36790;DHT22;22740;52.182;8.780;2022-08-05T00:30:59;21.50;99.90
36790;DHT22;22740;52.182;8.780;2022-08-05T00:37:05;21.40;99.90
36790;DHT22;22740;52.182;8.780;2022-08-05T00:43:13;21.40;99.90
36790;DHT22;22740;52.182;8.780;2022-08-05T00:49:16;21.30;99.90
36790;DHT22;22740;52.182;8.780;2022-08-05T00:55:21;21.20;99.90
36790;DHT22;22740;52.182;8.780;2022-08-05T01:01:42;21.20;99.90
36790;DHT22;22740;52.182;8.780;2022-08-05T01:07:49;21.00;99.90
36790;DHT22;22740;52.182;8.780;2022-08-05T01:14:16;21.10;99.90
36790;DHT22;22740;52.182;8.780;2022-08-05T01:20:36;21.20;99.90
36790;DHT22;22740;52.182;8.780;2022-08-05T01:27:05;20.30;99.90
36790;DHT22;22740;52.182;8.780;2022-08-05T01:33:27;19.80;99.90
36790;DHT22;22740;52.182;8.780;2022-08-05T01:39:37;19.80;99.90
36790;DHT22;22740;52.182;8.780;2022-08-05T01:45:48;19.70;99.90
36790;DHT22;22740;52.182;8.780;2022-08-05T01:52:00;19.50;99.90
36790;DHT22;22740;52.182;8.780;2022-08-05T01:58:18;19.50;99.90
36790;DHT22;22740;52.182;8.780;2022-08-05T02:04:42;19.40;99.90
36790;DHT22;22740;52.182;8.780;2022-08-05T02:10:52;19.50;99.90
36790;DHT22;22740;52.182;8.780;2022-08-05T02:17:11;19.60;99.90
36790;DHT22;22740;52.182;8.780;2022-08-05T02:23:32;19.80;99.90
36790;DHT22;22740;52.182;8.780;2022-08-05T02:29:41;19.90;99.90
36790;DHT22;22740;52.182;8.780;2022-08-05T02:36:02;20.00;99.90
36790;DHT22;22740;52.182;8.780;2022-08-05T02:42:06;20.00;99.90
36790;DHT22;22740;52.182;8.780;2022-08-05T02:48:09;19.80;99.90
36790;DHT22;22740;52.182;8.780;2022-08-05T02:54:13;19.50;99.90
36790;DHT22;22740;52.182;8.780;2022-08-05T03:00:35;19.50;99.90
36790;DHT22;22740;52.182;8.780;2022-08-05T03:06:42;19.60;99.90
36790;DHT22;22740;52.182;8.780;2022-08-05T03:12:59;19.60;99.90
36790;DHT22;22740;52.182;8.780;2022-08-05T03:19:00;19.50;99.90
36790;DHT22;22740;52.182;8.780;2022-08-05T03:25:19;19.60;99.90
36790;DHT22;22740;52.182;8.780;2022-08-05T03:31:35;19.70;99.90
36790;DHT22;22740;52.182;8.780;2022-08-05T03:38:00;19.70;99.90
36790;DHT22;22740;52.182;8.780;2022-08-05T03:44:03;19.60;99.90
36790;DHT22;22740;52.182;8.780;2022-08-05T03:50:12;19.50;99.90
36790;DHT22;22740;52.182;8.780;2022-08-05T03:56:41;19.40;99.90
36790;DHT22;22740;52.182;8.780;2022-08-05T04:02:46;19.40;99.90
36790;DHT22;22740;52.182;8.780;2022-08-05T04:09:00;19.30;99.90
36790;DHT22;22740;52.182;8.780;2022-08-05T04:15:02;19.30;99.90
36790;DHT22;22740;52.182;8.780;2022-08-05T04:21:05;19.30;99.90
36790;DHT22;22740;52.182;8.780;2022-08-05T04:27:12;19.20;99.90
36790;DHT22;22740;52.182;8.780;2022-08-05T04:33:15;19.30;99.90
36790;DHT22;22740;52.182;8.780;2022-08-05T04:39:37;19.20;99.90
36790;DHT22;22740;52.182;8.780;2022-08-05T04:45:40;19.20;99.90
36790;DHT22;22740;52.182;8.780;2022-08-05T04:51:49;19.20;99.90
36790;DHT22;22740;52.182;8.780;2022-08-05T04:58:01;19.10;99.90
36790;DHT22;22740;52.182;8.780;2022-08-05T05:04:03;19.10;99.90
36790;DHT22;22740;52.182;8.780;2022-08-05T05:10:05;19.00;99.90
36790;DHT22;22740;52.182;8.780;2022-08-05T05:16:07;19.00;99.90
36790;DHT22;22740;52.182;8.780;2022-08-05T05:22:09;19.00;99.90
36790;DHT22;22740;52.182;8.780;2022-08-05T05:28:26;19.00;99.90
36790;DHT22;22740;52.182;8.780;2022-08-05T05:34:29;18.70;99.90
36790;DHT22;22740;52.182;8.780;2022-08-05T05:40:32;18.70;99.90
36790;DHT22;22740;52.182;8.780;2022-08-05T05:46:34;18.70;99.90
36790;DHT22;22740;52.182;8.780;2022-08-05T05:52:41;18.60;99.90
36790;DHT22;22740;52.182;8.780;2022-08-05T05:58:47;18.20;99.90
36790;DHT22;22740;52.182;8.780;2022-08-05T06:04:50;18.10;99.90
36790;DHT22;22740;52.182;8.780;2022-08-05T06:10:52;18.10;99.90
36790;DHT22;22740;52.182;8.780;2022-08-05T06:16:54;18.20;99.90
36790;DHT22;22740;52.182;8.780;2022-08-05T06:22:57;18.30;99.90
36790;DHT22;22740;52.182;8.780;2022-08-05T06:28:59;18.20;99.90
36790;DHT22;22740;52.182;8.780;2022-08-05T06:35:21;18.20;99.90
36790;DHT22;22740;52.182;8.780;2022-08-05T06:41:43;18.00;99.90
36790;DHT22;22740;52.182;8.780;2022-08-05T06:47:45;18.10;99.90
36790;DHT22;22740;52.182;8.780;2022-08-05T06:54:06;18.00;99.90
36790;DHT22;22740;52.182;8.780;2022-08-05T07:00:12;18.10;99.90
36790;DHT22;22740;52.182;8.780;2022-08-05T07:06:22;18.30;99.90
36790;DHT22;22740;52.182;8.780;2022-08-05T07:12:29;18.20;99.90
36790;DHT22;22740;52.182;8.780;2022-08-05T07:18:49;18.30;99.90
36790;DHT22;22740;52.182;8.780;2022-08-05T07:24:53;18.20;99.90
36790;DHT22;22740;52.182;8.780;2022-08-05T07:30:54;18.30;99.90
36790;DHT22;22740;52.182;8.780;2022-08-05T07:36:56;18.20;99.90
36790;DHT22;22740;52.182;8.780;2022-08-05T07:42:58;18.10;99.90
36790;DHT22;22740;52.182;8.780;2022-08-05T07:49:05;18.30;99.90
36790;DHT22;22740;52.182;8.780;2022-08-05T07:55:09;18.20;99.90
36790;DHT22;22740;52.182;8.780;2022-08-05T08:01:31;18.20;99.90
36790;DHT22;22740;52.182;8.780;2022-08-05T08:07:36;18.30;99.90
36790;DHT22;22740;52.182;8.780;2022-08-05T08:13:40;18.30;99.90
36790;DHT22;22740;52.182;8.780;2022-08-05T08:20:02;18.10;99.90
36790;DHT22;22740;52.182;8.780;2022-08-05T08:26:25;18.10;99.90
36790;DHT22;22740;52.182;8.780;2022-08-05T08:32:33;17.90;99.90
36790;DHT22;22740;52.182;8.780;2022-08-05T08:38:40;17.90;99.90
36790;DHT22;22740;52.182;8.780;2022-08-05T08:44:43;17.90;99.90
36790;DHT22;22740;52.182;8.780;2022-08-05T08:51:05;18.00;99.90
36790;DHT22;22740;52.182;8.780;2022-08-05T08:57:27;18.20;99.90
36790;DHT22;22740;52.182;8.780;2022-08-05T09:03:51;18.30;99.90
36790;DHT22;22740;52.182;8.780;2022-08-05T09:09:56;18.20;99.90
36790;DHT22;22740;52.182;8.780;2022-08-05T09:15:59;18.30;99.90
36790;DHT22;22740;52.182;8.780;2022-08-05T09:22:03;18.30;99.90
36790;DHT22;22740;52.182;8.780;2022-08-05T09:28:25;18.10;99.90
36790;DHT22;22740;52.182;8.780;2022-08-05T09:34:47;18.00;99.90
36790;DHT22;22740;52.182;8.780;2022-08-05T09:40:50;17.60;99.90
36790;DHT22;22740;52.182;8.780;2022-08-05T09:47:06;17.70;99.90
36790;DHT22;22740;52.182;8.780;2022-08-05T09:53:13;17.60;99.90
36790;DHT22;22740;52.182;8.780;2022-08-05T09:59:35;17.60;99.90
36790;DHT22;22740;52.182;8.780;2022-08-05T10:05:37;17.60;99.90
36790;DHT22;22740;52.182;8.780;2022-08-05T10:11:42;17.60;99.90
36790;DHT22;22740;52.182;8.780;2022-08-05T10:18:14;17.50;99.90
36790;DHT22;22740;52.182;8.780;2022-08-05T10:24:19;17.50;99.90
36790;DHT22;22740;52.182;8.780;2022-08-05T10:30:27;17.60;99.90
36790;DHT22;22740;52.182;8.780;2022-08-05T10:36:49;17.50;99.90
36790;DHT22;22740;52.182;8.780;2022-08-05T10:42:53;17.50;99.90
36790;DHT22;22740;52.182;8.780;2022-08-05T10:48:56;17.50;99.90
36790;DHT22;22740;52.182;8.780;2022-08-05T10:55:05;17.60;99.90
36790;DHT22;22740;52.182;8.780;2022-08-05T11:01:10;17.50;99.90
36790;DHT22;22740;52.182;8.780;2022-08-05T11:07:15;17.50;99.90
36790;DHT22;22740;52.182;8.780;2022-08-05T11:13:39;17.40;99.90
36790;DHT22;22740;52.182;8.780;2022-08-05T11:19:59;17.50;99.90
36790;DHT22;22740;52.182;8.780;2022-08-05T11:32:32;17.60;99.90
36790;DHT22;22740;52.182;8.780;2022-08-05T11:44:46;17.70;99.90
36790;DHT22;22740;52.182;8.780;2022-08-05T11:50:54;17.70;99.90
36790;DHT22;22740;52.182;8.780;2022-08-05T11:56:57;17.70;99.90
36790;DHT22;22740;52.182;8.780;2022-08-05T12:03:18;17.90;99.90
36790;DHT22;22740;52.182;8.780;2022-08-05T12:09:36;17.90;99.90
36790;DHT22;22740;52.182;8.780;2022-08-05T12:15:54;17.90;99.90
36790;DHT22;22740;52.182;8.780;2022-08-05T12:21:56;17.70;99.90
36790;DHT22;22740;52.182;8.780;2022-08-05T12:27:58;17.80;99.90
36790;DHT22;22740;52.182;8.780;2022-08-05T12:34:05;17.90;99.90
36790;DHT22;22740;52.182;8.780;2022-08-05T12:40:10;18.10;99.90
36790;DHT22;22740;52.182;8.780;2022-08-05T12:46:29;17.80;99.90
36790;DHT22;22740;52.182;8.780;2022-08-05T12:52:34;17.90;99.90
36790;DHT22;22740;52.182;8.780;2022-08-05T12:58:43;18.30;99.90
36790;DHT22;22740;52.182;8.780;2022-08-05T13:04:56;18.20;99.90
36790;DHT22;22740;52.182;8.780;2022-08-05T13:11:00;18.50;99.90
36790;DHT22;22740;52.182;8.780;2022-08-05T13:17:07;18.50;99.90
36790;DHT22;22740;52.182;8.780;2022-08-05T13:23:10;18.30;99.90
36790;DHT22;22740;52.182;8.780;2022-08-05T13:29:12;18.80;99.90
36790;DHT22;22740;52.182;8.780;2022-08-05T13:35:20;18.70;99.90
36790;DHT22;22740;52.182;8.780;2022-08-05T13:41:42;19.10;99.90
36790;DHT22;22740;52.182;8.780;2022-08-05T13:47:44;19.30;99.90
36790;DHT22;22740;52.182;8.780;2022-08-05T13:54:07;19.30;99.90
36790;DHT22;22740;52.182;8.780;2022-08-05T14:00:13;19.00;99.90
36790;DHT22;22740;52.182;8.780;2022-08-05T14:06:17;19.10;99.90
36790;DHT22;22740;52.182;8.780;2022-08-05T14:12:27;19.00;99.90
36790;DHT22;22740;52.182;8.780;2022-08-05T14:18:33;18.80;99.90
36790;DHT22;22740;52.182;8.780;2022-08-05T14:24:38;18.60;99.90
36790;DHT22;22740;52.182;8.780;2022-08-05T14:30:40;18.90;99.90
36790;DHT22;22740;52.182;8.780;2022-08-05T14:36:47;18.80;99.90
36790;DHT22;22740;52.182;8.780;2022-08-05T14:42:49;19.50;99.90
36790;DHT22;22740;52.182;8.780;2022-08-05T14:48:52;20.20;99.90
36790;DHT22;22740;52.182;8.780;2022-08-05T14:54:55;20.70;99.90
36790;DHT22;22740;52.182;8.780;2022-08-05T15:00:57;20.80;99.90
36790;DHT22;22740;52.182;8.780;2022-08-05T15:07:02;20.00;99.90
36790;DHT22;22740;52.182;8.780;2022-08-05T15:13:04;20.20;99.90
36790;DHT22;22740;52.182;8.780;2022-08-05T15:19:10;20.60;99.90
36790;DHT22;22740;52.182;8.780;2022-08-05T15:25:24;20.50;99.90
36790;DHT22;22740;52.182;8.780;2022-08-05T15:31:46;20.70;99.90
36790;DHT22;22740;52.182;8.780;2022-08-05T15:37:54;20.70;99.90
36790;DHT22;22740;52.182;8.780;2022-08-05T15:44:16;20.90;99.90
36790;DHT22;22740;52.182;8.780;2022-08-05T15:50:18;20.80;99.90
36790;DHT22;22740;52.182;8.780;2022-08-05T15:56:25;20.70;99.90
36790;DHT22;22740;52.182;8.780;2022-08-05T16:02:31;20.40;99.90
36790;DHT22;22740;52.182;8.780;2022-08-05T16:08:33;20.30;99.90
36790;DHT22;22740;52.182;8.780;2022-08-05T16:14:35;20.30;99.90
36790;DHT22;22740;52.182;8.780;2022-08-05T16:20:37;20.20;99.90
36790;DHT22;22740;52.182;8.780;2022-08-05T16:26:56;20.60;99.90
36790;DHT22;22740;52.182;8.780;2022-08-05T16:32:59;21.00;99.90
36790;DHT22;22740;52.182;8.780;2022-08-05T16:39:01;21.30;99.90
36790;DHT22;22740;52.182;8.780;2022-08-05T16:45:05;21.30;99.90
36790;DHT22;22740;52.182;8.780;2022-08-05T16:51:27;21.60;99.90
36790;DHT22;22740;52.182;8.780;2022-08-05T16:57:31;21.50;99.90
36790;DHT22;22740;52.182;8.780;2022-08-05T17:03:53;21.30;99.90
36790;DHT22;22740;52.182;8.780;2022-08-05T17:09:55;21.30;99.90
36790;DHT22;22740;52.182;8.780;2022-08-05T17:15:59;21.20;99.90
36790;DHT22;22740;52.182;8.780;2022-08-05T17:22:21;21.20;99.90
36790;DHT22;22740;52.182;8.780;2022-08-05T17:28:26;21.30;99.90
36790;DHT22;22740;52.182;8.780;2022-08-05T17:34:29;21.30;99.90
36790;DHT22;22740;52.182;8.780;2022-08-05T17:40:35;21.10;99.90
36790;DHT22;22740;52.182;8.780;2022-08-05T17:46:40;21.60;99.90
36790;DHT22;22740;52.182;8.780;2022-08-05T17:52:43;21.50;99.90
36790;DHT22;22740;52.182;8.780;2022-08-05T17:58:54;21.20;99.90
36790;DHT22;22740;52.182;8.780;2022-08-05T18:04:55;20.90;99.90
36790;DHT22;22740;52.182;8.780;2022-08-05T18:10:59;20.50;99.90
36790;DHT22;22740;52.182;8.780;2022-08-05T18:17:03;20.00;99.90
36790;DHT22;22740;52.182;8.780;2022-08-05T18:23:28;19.50;99.90
36790;DHT22;22740;52.182;8.780;2022-08-05T18:29:46;19.20;99.90
36790;DHT22;22740;52.182;8.780;2022-08-05T18:35:54;19.20;99.90
36790;DHT22;22740;52.182;8.780;2022-08-05T18:42:07;18.70;99.90
36790;DHT22;22740;52.182;8.780;2022-08-05T18:48:12;18.50;99.90
36790;DHT22;22740;52.182;8.780;2022-08-05T18:54:33;18.40;99.90
36790;DHT22;22740;52.182;8.780;2022-08-05T19:00:35;18.40;99.90
36790;DHT22;22740;52.182;8.780;2022-08-05T19:06:36;18.20;99.90
36790;DHT22;22740;52.182;8.780;2022-08-05T19:12:46;18.10;99.90
36790;DHT22;22740;52.182;8.780;2022-08-05T19:18:48;18.10;99.90
36790;DHT22;22740;52.182;8.780;2022-08-05T19:24:52;18.10;99.90
36790;DHT22;22740;52.182;8.780;2022-08-05T19:30:57;18.10;99.90
36790;DHT22;22740;52.182;8.780;2022-08-05T19:36:59;18.10;99.90
36790;DHT22;22740;52.182;8.780;2022-08-05T19:43:01;18.00;99.90
36790;DHT22;22740;52.182;8.780;2022-08-05T19:49:06;17.90;99.90
36790;DHT22;22740;52.182;8.780;2022-08-05T19:55:13;17.80;99.90
36790;DHT22;22740;52.182;8.780;2022-08-05T20:01:34;17.60;99.90
36790;DHT22;22740;52.182;8.780;2022-08-05T20:07:36;17.60;99.90
36790;DHT22;22740;52.182;8.780;2022-08-05T20:13:48;17.40;99.90
36790;DHT22;22740;52.182;8.780;2022-08-05T20:20:11;17.30;99.90
36790;DHT22;22740;52.182;8.780;2022-08-05T20:26:14;17.30;99.90
36790;DHT22;22740;52.182;8.780;2022-08-05T20:32:18;17.30;99.90
36790;DHT22;22740;52.182;8.780;2022-08-05T20:38:21;17.30;99.90
36790;DHT22;22740;52.182;8.780;2022-08-05T20:44:27;17.20;99.90
36790;DHT22;22740;52.182;8.780;2022-08-05T20:50:31;17.00;99.90
36790;DHT22;22740;52.182;8.780;2022-08-05T20:56:33;16.90;99.90
36790;DHT22;22740;52.182;8.780;2022-08-05T21:02:43;16.90;99.90
36790;DHT22;22740;52.182;8.780;2022-08-05T21:08:52;16.70;99.90
36790;DHT22;22740;52.182;8.780;2022-08-05T21:14:54;16.60;99.90
36790;DHT22;22740;52.182;8.780;2022-08-05T21:20:59;16.30;99.90
36790;DHT22;22740;52.182;8.780;2022-08-05T21:27:01;16.50;99.90
36790;DHT22;22740;52.182;8.780;2022-08-05T21:33:03;16.50;99.90
36790;DHT22;22740;52.182;8.780;2022-08-05T21:39:11;16.60;99.90
36790;DHT22;22740;52.182;8.780;2022-08-05T21:45:17;16.50;99.90
36790;DHT22;22740;52.182;8.780;2022-08-05T21:51:38;16.50;99.90
36790;DHT22;22740;52.182;8.780;2022-08-05T21:58:00;16.50;99.90
36790;DHT22;22740;52.182;8.780;2022-08-05T22:04:04;16.30;99.90
36790;DHT22;22740;52.182;8.780;2022-08-05T22:10:15;16.10;99.90
36790;DHT22;22740;52.182;8.780;2022-08-05T22:16:17;16.10;99.90
36790;DHT22;22740;52.182;8.780;2022-08-05T22:22:39;15.90;99.90
36790;DHT22;22740;52.182;8.780;2022-08-05T22:28:59;15.80;99.90
36790;DHT22;22740;52.182;8.780;2022-08-05T22:35:01;15.80;99.90
36790;DHT22;22740;52.182;8.780;2022-08-05T22:41:03;15.80;99.90
36790;DHT22;22740;52.182;8.780;2022-08-05T22:47:10;15.80;99.90
36790;DHT22;22740;52.182;8.780;2022-08-05T22:53:12;15.70;99.90
36790;DHT22;22740;52.182;8.780;2022-08-05T22:59:17;15.70;99.90
36790;DHT22;22740;52.182;8.780;2022-08-05T23:05:38;15.50;99.90
36790;DHT22;22740;52.182;8.780;2022-08-05T23:11:40;15.40;99.90
36790;DHT22;22740;52.182;8.780;2022-08-05T23:17:47;15.30;99.90
36790;DHT22;22740;52.182;8.780;2022-08-05T23:24:03;15.20;99.90
36790;DHT22;22740;52.182;8.780;2022-08-05T23:30:12;15.10;99.90
36790;DHT22;22740;52.182;8.780;2022-08-05T23:36:14;15.10;99.90
36790;DHT22;22740;52.182;8.780;2022-08-05T23:42:16;15.00;99.90
36790;DHT22;22740;52.182;8.780;2022-08-05T23:48:30;15.00;99.90
36790;DHT22;22740;52.182;8.780;2022-08-05T23:54:32;14.90;99.90
